createdAt,value
2023-09-07T00:00:30.839Z,74.10
2023-09-07T00:01:30.886Z,75.69
2023-09-07T00:02:39.042Z,73.52
2023-09-07T00:03:32.897Z,71.80
2023-09-07T00:04:30.817Z,73.92
2023-09-07T00:05:30.743Z,72.28
2023-09-07T00:06:30.695Z,72.77
2023-09-07T00:07:30.764Z,71.74
2023-09-07T00:08:30.830Z,71.70
2023-09-07T00:09:30.667Z,72.95
2023-09-07T00:10:30.638Z,72.65
2023-09-07T00:11:30.594Z,72.69
2023-09-07T00:12:30.570Z,71.71
2023-09-07T00:13:30.562Z,71.33
2023-09-07T00:14:30.567Z,70.94
2023-09-07T00:15:30.521Z,72.29
2023-09-07T00:16:30.556Z,70.95
2023-09-07T00:17:30.503Z,71.07
2023-09-07T00:18:30.767Z,71.57
2023-09-07T00:19:30.471Z,73.17
2023-09-07T00:20:30.419Z,72.05
2023-09-07T00:21:30.397Z,73.15
2023-09-07T00:22:30.415Z,74.28
2023-09-07T00:23:30.389Z,73.20
2023-09-07T00:24:30.330Z,73.24
2023-09-07T00:25:30.366Z,72.94
2023-09-07T00:26:30.292Z,73.11
2023-09-07T00:27:30.277Z,71.45
2023-09-07T00:28:30.588Z,71.53
2023-09-07T00:29:30.238Z,70.63
2023-09-07T00:30:30.218Z,71.78
2023-09-07T00:31:30.267Z,71.22
2023-09-07T00:32:30.233Z,72.34
2023-09-07T00:33:30.173Z,69.68
2023-09-07T00:34:30.177Z,72.43
2023-09-07T00:35:30.114Z,74.01
2023-09-07T00:36:30.102Z,73.83
2023-09-07T00:37:30.157Z,69.30
2023-09-07T00:38:30.273Z,73.20
2023-09-07T00:39:30.030Z,71.49
2023-09-07T00:40:30.068Z,72.91
2023-09-07T00:41:29.990Z,72.92
2023-09-07T00:42:30.014Z,75.32
2023-09-07T00:43:29.971Z,72.37
2023-09-07T00:44:29.955Z,71.81
2023-09-07T00:45:29.909Z,71.54
2023-09-07T00:46:29.920Z,72.52
2023-09-07T00:47:29.947Z,73.88
2023-09-07T00:48:30.130Z,71.45
2023-09-07T00:49:29.842Z,71.23
2023-09-07T00:50:29.810Z,71.18
2023-09-07T00:51:29.818Z,72.82
2023-09-07T00:52:29.779Z,73.44
2023-09-07T00:53:29.744Z,74.32
2023-09-07T00:54:29.727Z,73.01
2023-09-07T00:55:29.708Z,73.82
2023-09-07T00:56:29.712Z,73.64
2023-09-07T00:57:29.664Z,72.74
2023-09-07T00:58:29.855Z,73.02
2023-09-07T00:59:29.628Z,70.76
2023-09-07T01:00:29.659Z,72.58
2023-09-07T01:01:29.691Z,73.38
2023-09-07T01:02:29.668Z,72.20
2023-09-07T01:03:29.613Z,70.44
2023-09-07T01:04:29.542Z,73.57
2023-09-07T01:05:29.534Z,73.43
2023-09-07T01:06:29.489Z,70.71
2023-09-07T01:07:29.467Z,72.71
2023-09-07T01:08:29.802Z,70.99
2023-09-07T01:09:29.452Z,72.05
2023-09-07T01:10:29.425Z,70.05
2023-09-07T01:11:30.408Z,72.30
2023-09-07T01:12:29.381Z,70.75
2023-09-07T01:13:29.363Z,73.25
2023-09-07T01:14:29.349Z,71.67
2023-09-07T01:15:29.314Z,72.63
2023-09-07T01:16:29.437Z,72.75
2023-09-07T01:17:29.428Z,72.24
2023-09-07T01:18:29.258Z,72.34
2023-09-07T01:19:29.270Z,69.20
2023-09-07T01:20:29.197Z,71.53
2023-09-07T01:21:29.184Z,72.87
2023-09-07T01:22:29.177Z,73.62
2023-09-07T01:23:29.144Z,73.44
2023-09-07T01:24:29.151Z,74.08
2023-09-07T01:25:29.124Z,73.56
2023-09-07T01:26:29.099Z,71.86
2023-09-07T01:27:29.057Z,69.74
2023-09-07T01:28:29.338Z,71.30
2023-09-07T01:29:29.044Z,73.80
2023-09-07T01:30:29.023Z,75.42
2023-09-07T01:31:29.075Z,75.15
2023-09-07T01:32:28.974Z,73.05
2023-09-07T01:33:28.963Z,72.67
2023-09-07T01:34:29.008Z,72.03
2023-09-07T01:35:29.047Z,72.85
2023-09-07T01:36:28.913Z,72.71
2023-09-07T01:37:28.859Z,72.19
2023-09-07T01:38:29.060Z,73.52
2023-09-07T01:39:28.808Z,72.89
2023-09-07T01:40:28.784Z,73.03
2023-09-07T01:41:28.835Z,71.93
2023-09-07T01:42:28.778Z,69.11
2023-09-07T01:43:28.788Z,73.23
2023-09-07T01:44:28.700Z,71.63
2023-09-07T01:45:28.685Z,72.37
2023-09-07T01:46:28.853Z,73.31
2023-09-07T01:47:28.792Z,73.13
2023-09-07T01:48:28.789Z,72.09
2023-09-07T01:49:28.702Z,73.25
2023-09-07T01:50:28.588Z,68.30
2023-09-07T01:51:28.562Z,69.33
2023-09-07T01:52:28.567Z,74.24
2023-09-07T01:53:28.516Z,72.34
2023-09-07T01:54:28.498Z,73.28
2023-09-07T01:55:28.541Z,73.60
2023-09-07T01:56:28.580Z,71.31
2023-09-07T01:57:28.458Z,74.89
2023-09-07T01:58:28.536Z,73.55
2023-09-07T01:59:28.386Z,71.57
2023-09-07T02:00:28.364Z,74.11
2023-09-07T02:01:28.370Z,72.86
2023-09-07T02:02:28.330Z,73.73
2023-09-07T02:03:28.337Z,73.39
2023-09-07T02:04:28.290Z,74.60
2023-09-07T02:05:28.335Z,73.74
2023-09-07T02:06:28.279Z,73.14
2023-09-07T02:07:28.221Z,74.68
2023-09-07T02:08:28.274Z,74.14
2023-09-07T02:09:28.185Z,74.88
2023-09-07T02:10:28.192Z,76.03
2023-09-07T02:11:28.144Z,74.97
2023-09-07T02:12:28.119Z,76.11
2023-09-07T02:13:28.099Z,77.44
2023-09-07T02:14:28.082Z,73.52
2023-09-07T02:15:28.085Z,75.39
2023-09-07T02:16:28.130Z,72.42
2023-09-07T02:17:28.253Z,73.34
2023-09-07T02:18:28.025Z,74.90
2023-09-07T02:19:28.006Z,75.67
2023-09-07T02:20:28.029Z,74.34
2023-09-07T02:21:27.946Z,76.58
2023-09-07T02:22:27.915Z,76.18
2023-09-07T02:23:27.912Z,74.93
2023-09-07T02:24:28.899Z,75.16
2023-09-07T02:25:27.853Z,74.01
2023-09-07T02:26:27.868Z,74.06
2023-09-07T02:27:27.807Z,75.58
2023-09-07T02:28:27.778Z,74.68
2023-09-07T02:29:27.824Z,74.40
2023-09-07T02:30:27.942Z,74.21
2023-09-07T02:31:27.747Z,74.72
2023-09-07T02:32:27.718Z,74.14
2023-09-07T02:33:27.709Z,74.65
2023-09-07T02:34:27.684Z,73.91
2023-09-07T02:35:27.690Z,73.70
2023-09-07T02:36:27.609Z,73.68
2023-09-07T02:37:27.590Z,72.85
2023-09-07T02:38:27.708Z,74.62
2023-09-07T02:39:27.549Z,75.51
2023-09-07T02:40:27.527Z,71.73
2023-09-07T02:41:27.531Z,74.59
2023-09-07T02:42:27.484Z,75.71
2023-09-07T02:43:27.493Z,73.85
2023-09-07T02:44:27.454Z,75.89
2023-09-07T02:45:27.456Z,74.62
2023-09-07T02:46:27.423Z,76.00
2023-09-07T02:47:27.434Z,76.23
2023-09-07T02:48:27.479Z,74.32
2023-09-07T02:49:27.353Z,73.96
2023-09-07T02:50:27.329Z,72.77
2023-09-07T02:51:27.330Z,73.59
2023-09-07T02:52:27.308Z,70.75
2023-09-07T02:53:27.272Z,74.22
2023-09-07T02:54:27.241Z,74.62
2023-09-07T02:55:27.240Z,75.16
2023-09-07T02:56:27.209Z,75.54
2023-09-07T02:57:27.203Z,74.54
2023-09-07T02:58:27.173Z,73.25
2023-09-07T02:59:27.130Z,75.58
2023-09-07T03:00:27.109Z,74.50
2023-09-07T03:01:27.182Z,75.61
2023-09-07T03:02:27.209Z,74.66
2023-09-07T03:03:27.171Z,75.65
2023-09-07T03:04:27.016Z,72.91
2023-09-07T03:05:27.018Z,75.56
2023-09-07T03:06:27.002Z,76.30
2023-09-07T03:07:27.024Z,76.38
2023-09-07T03:08:26.976Z,72.65
2023-09-07T03:09:26.918Z,73.41
2023-09-07T03:10:26.903Z,73.75
2023-09-07T03:11:26.890Z,75.81
2023-09-07T03:12:26.840Z,76.06
2023-09-07T03:13:26.884Z,75.64
2023-09-07T03:14:26.805Z,75.32
2023-09-07T03:15:26.804Z,74.35
2023-09-07T03:16:26.837Z,76.34
2023-09-07T03:17:26.845Z,75.06
2023-09-07T03:18:26.721Z,75.29
2023-09-07T03:19:26.731Z,75.79
2023-09-07T03:20:26.697Z,76.03
2023-09-07T03:21:26.680Z,75.94
2023-09-07T03:22:26.643Z,75.50
2023-09-07T03:23:26.596Z,75.74
2023-09-07T03:24:26.603Z,75.61
2023-09-07T03:25:26.647Z,75.38
2023-09-07T03:26:26.561Z,74.23
2023-09-07T03:27:26.522Z,75.03
2023-09-07T03:28:26.532Z,75.83
2023-09-07T03:29:26.515Z,75.22
2023-09-07T03:30:27.437Z,76.21
2023-09-07T03:31:26.500Z,75.94
2023-09-07T03:32:26.543Z,74.27
2023-09-07T03:33:26.451Z,74.87
2023-09-07T03:34:26.455Z,77.02
2023-09-07T03:35:26.336Z,76.06
2023-09-07T03:36:26.358Z,74.52
2023-09-07T03:37:26.297Z,76.30
2023-09-07T03:38:26.298Z,74.94
2023-09-07T03:39:26.279Z,73.59
2023-09-07T03:40:26.254Z,77.44
2023-09-07T03:41:26.211Z,76.32
2023-09-07T03:42:26.186Z,74.99
2023-09-07T03:43:26.242Z,75.29
2023-09-07T03:44:26.136Z,76.17
2023-09-07T03:45:26.128Z,73.21
2023-09-07T03:46:26.216Z,75.70
2023-09-07T03:47:26.100Z,75.66
2023-09-07T03:48:26.081Z,75.92
2023-09-07T03:49:26.086Z,76.67
2023-09-07T03:50:26.008Z,76.84
2023-09-07T03:51:25.987Z,75.31
2023-09-07T03:52:26.013Z,75.47
2023-09-07T03:53:25.982Z,76.32
2023-09-07T03:54:25.925Z,75.59
2023-09-07T03:55:25.897Z,76.13
2023-09-07T03:56:25.879Z,75.78
2023-09-07T03:57:25.897Z,77.27
2023-09-07T03:58:25.837Z,77.59
2023-09-07T03:59:25.811Z,77.48
2023-09-07T04:00:25.804Z,76.01
2023-09-07T04:01:25.901Z,74.18
2023-09-07T04:02:25.977Z,75.87
2023-09-07T04:03:26.010Z,77.19
2023-09-07T04:04:25.847Z,76.46
2023-09-07T04:05:25.688Z,75.01
2023-09-07T04:06:25.690Z,74.11
2023-09-07T04:07:25.691Z,74.49
2023-09-07T04:08:25.619Z,75.23
2023-09-07T04:09:25.618Z,77.35
2023-09-07T04:10:25.639Z,76.97
2023-09-07T04:11:25.576Z,77.00
2023-09-07T04:12:25.562Z,78.00
2023-09-07T04:13:25.524Z,76.84
2023-09-07T04:14:25.500Z,75.66
2023-09-07T04:15:25.469Z,76.52
2023-09-07T04:16:25.591Z,77.56
2023-09-07T04:17:25.488Z,76.21
2023-09-07T04:18:25.402Z,77.42
2023-09-07T04:19:25.386Z,78.07
2023-09-07T04:20:25.373Z,77.83
2023-09-07T04:21:25.388Z,76.85
2023-09-07T04:22:25.312Z,74.94
2023-09-07T04:23:25.283Z,77.06
2023-09-07T04:24:25.265Z,73.98
2023-09-07T04:25:25.257Z,79.07
2023-09-07T04:26:25.216Z,78.90
2023-09-07T04:27:25.252Z,77.10
2023-09-07T04:28:25.172Z,77.12
2023-09-07T04:29:25.155Z,76.75
2023-09-07T04:30:25.187Z,77.63
2023-09-07T04:31:25.123Z,76.82
2023-09-07T04:32:25.121Z,77.84
2023-09-07T04:33:25.090Z,75.68
2023-09-07T04:34:25.156Z,76.64
2023-09-07T04:35:25.084Z,78.11
2023-09-07T04:36:24.999Z,77.46
2023-09-07T04:37:24.989Z,76.09
2023-09-07T04:38:24.950Z,78.42
2023-09-07T04:39:24.969Z,75.38
2023-09-07T04:40:24.913Z,75.87
2023-09-07T04:41:24.881Z,76.27
2023-09-07T04:42:24.858Z,76.55
2023-09-07T04:43:24.847Z,77.66
2023-09-07T04:44:24.845Z,77.44
2023-09-07T04:45:24.836Z,77.62
2023-09-07T04:46:24.830Z,78.44
2023-09-07T04:47:24.761Z,78.38
2023-09-07T04:48:24.762Z,76.75
2023-09-07T04:49:24.742Z,77.83
2023-09-07T04:50:24.745Z,76.23
2023-09-07T04:51:24.672Z,78.26
2023-09-07T04:52:24.651Z,76.72
2023-09-07T04:53:24.654Z,75.68
2023-09-07T04:54:24.599Z,76.37
2023-09-07T04:55:24.582Z,77.87
2023-09-07T04:56:24.582Z,76.07
2023-09-07T04:57:25.543Z,77.33
2023-09-07T04:58:24.543Z,78.00
2023-09-07T04:59:24.503Z,77.13
2023-09-07T05:00:24.479Z,76.17
2023-09-07T05:01:24.531Z,75.89
2023-09-07T05:02:24.478Z,74.35
2023-09-07T05:03:24.482Z,75.14
2023-09-07T05:04:24.486Z,75.85
2023-09-07T05:05:24.375Z,76.38
2023-09-07T05:06:24.576Z,75.63
2023-09-07T05:07:24.351Z,76.21
2023-09-07T05:08:24.338Z,76.42
2023-09-07T05:09:24.288Z,75.99
2023-09-07T05:10:24.363Z,75.32
2023-09-07T05:11:24.249Z,76.28
2023-09-07T05:12:24.295Z,76.05
2023-09-07T05:13:24.206Z,73.95
2023-09-07T05:14:24.188Z,75.28
2023-09-07T05:15:24.164Z,75.66
2023-09-07T05:16:24.278Z,75.69
2023-09-07T05:17:24.182Z,75.65
2023-09-07T05:18:24.150Z,75.97
2023-09-07T05:19:24.097Z,75.75
2023-09-07T05:20:24.074Z,74.92
2023-09-07T05:21:24.172Z,75.03
2023-09-07T05:22:24.068Z,73.22
2023-09-07T05:23:24.018Z,74.21
2023-09-07T05:24:23.996Z,73.73
2023-09-07T05:25:23.999Z,74.38
2023-09-07T05:26:24.016Z,74.18
2023-09-07T05:27:23.982Z,71.55
2023-09-07T05:28:23.938Z,72.15
2023-09-07T05:29:23.928Z,71.37
2023-09-07T05:30:23.994Z,73.82
2023-09-07T05:31:24.012Z,71.45
2023-09-07T05:32:23.859Z,73.44
2023-09-07T05:33:23.838Z,72.65
2023-09-07T05:34:23.816Z,70.99
2023-09-07T05:35:23.861Z,71.21
2023-09-07T05:36:23.783Z,71.20
2023-09-07T05:37:23.832Z,72.49
2023-09-07T05:38:23.754Z,70.94
2023-09-07T05:39:23.734Z,71.34
2023-09-07T05:40:23.764Z,70.71
2023-09-07T05:41:23.702Z,70.99
2023-09-07T05:42:23.686Z,72.34
2023-09-07T05:43:23.695Z,71.46
2023-09-07T05:44:23.679Z,70.31
2023-09-07T05:45:23.689Z,71.34
2023-09-07T05:46:23.766Z,67.91
2023-09-07T05:47:23.649Z,70.55
2023-09-07T05:48:23.586Z,68.72
2023-09-07T05:49:23.635Z,70.99
2023-09-07T05:50:23.542Z,69.81
2023-09-07T05:51:23.531Z,70.63
2023-09-07T05:52:23.570Z,68.27
2023-09-07T05:53:23.550Z,71.76
2023-09-07T05:54:23.592Z,71.62
2023-09-07T05:55:24.338Z,71.73
2023-09-07T05:56:23.492Z,69.41
2023-09-07T05:57:23.543Z,69.21
2023-09-07T05:58:23.439Z,69.01
2023-09-07T05:59:23.426Z,68.16
2023-09-07T06:00:23.417Z,71.91
2023-09-07T06:01:23.397Z,69.66
2023-09-07T06:02:23.370Z,67.83
2023-09-07T06:03:23.466Z,70.59
2023-09-07T06:04:23.420Z,72.42
2023-09-07T06:05:23.297Z,70.56
2023-09-07T06:06:23.278Z,71.60
2023-09-07T06:07:23.259Z,71.61
2023-09-07T06:08:23.263Z,70.53
2023-09-07T06:09:23.226Z,72.59
2023-09-07T06:10:23.202Z,72.90
2023-09-07T06:11:23.189Z,71.58
2023-09-07T06:12:23.201Z,71.34
2023-09-07T06:13:23.192Z,68.50
2023-09-07T06:14:23.147Z,69.07
2023-09-07T06:15:23.159Z,71.06
2023-09-07T06:16:23.158Z,71.12
2023-09-07T06:17:23.164Z,71.14
2023-09-07T06:18:23.070Z,71.81
2023-09-07T06:19:23.142Z,70.70
2023-09-07T06:20:23.065Z,68.59
2023-09-07T06:21:23.027Z,71.29
2023-09-07T06:22:23.043Z,67.08
2023-09-07T06:23:22.997Z,71.09
2023-09-07T06:24:22.979Z,70.20
2023-09-07T06:25:23.013Z,69.89
2023-09-07T06:26:22.967Z,69.05
2023-09-07T06:27:22.965Z,71.91
2023-09-07T06:28:22.957Z,69.86
2023-09-07T06:29:23.634Z,70.51
2023-09-07T06:30:22.877Z,71.32
2023-09-07T06:31:23.053Z,69.07
2023-09-07T06:32:22.893Z,71.15
2023-09-07T06:33:22.900Z,69.92
2023-09-07T06:34:22.884Z,70.10
2023-09-07T06:35:22.797Z,70.20
2023-09-07T06:36:33.689Z,69.51
2023-09-07T06:37:24.780Z,69.23
2023-09-07T06:38:22.746Z,71.14
2023-09-07T06:39:22.730Z,70.93
2023-09-07T06:40:22.710Z,69.24
2023-09-07T06:41:22.732Z,71.49
2023-09-07T06:42:22.688Z,69.73
2023-09-07T06:43:22.691Z,70.05
2023-09-07T06:44:22.657Z,69.49
2023-09-07T06:45:22.677Z,71.18
2023-09-07T06:46:22.681Z,69.57
2023-09-07T06:47:22.606Z,70.48
2023-09-07T06:48:22.608Z,69.39
2023-09-07T06:49:22.563Z,71.32
2023-09-07T06:50:22.584Z,71.89
2023-09-07T06:51:22.541Z,71.52
2023-09-07T06:52:22.624Z,71.41
2023-09-07T06:53:22.508Z,69.84
2023-09-07T06:54:23.524Z,71.44
2023-09-07T06:55:22.503Z,71.09
2023-09-07T06:56:22.464Z,69.15
2023-09-07T06:57:22.499Z,71.53
2023-09-07T06:58:22.426Z,72.15
2023-09-07T06:59:22.441Z,72.45
2023-09-07T07:00:22.424Z,71.36
2023-09-07T07:01:22.423Z,72.31
2023-09-07T07:02:22.361Z,71.55
2023-09-07T07:03:22.451Z,72.05
2023-09-07T07:04:22.506Z,70.59
2023-09-07T07:05:22.321Z,71.03
2023-09-07T07:06:22.314Z,70.73
2023-09-07T07:07:22.328Z,69.00
2023-09-07T07:08:22.277Z,69.73
2023-09-07T07:09:22.304Z,71.02
2023-09-07T07:10:22.316Z,70.91
2023-09-07T07:11:22.231Z,69.68
2023-09-07T07:12:22.210Z,70.20
2023-09-07T07:13:22.225Z,71.10
2023-09-07T07:14:22.207Z,70.54
2023-09-07T07:15:22.163Z,70.01
2023-09-07T07:16:22.252Z,68.83
2023-09-07T07:17:22.195Z,69.05
2023-09-07T07:18:22.145Z,67.89
2023-09-07T07:19:36.819Z,70.27
2023-09-07T07:20:22.155Z,68.54
2023-09-07T07:21:22.076Z,71.25
2023-09-07T07:22:22.292Z,68.21
2023-09-07T07:23:22.067Z,70.54
2023-09-07T07:24:22.023Z,68.13
2023-09-07T07:25:21.998Z,70.42
2023-09-07T07:26:21.992Z,70.43
2023-09-07T07:27:22.025Z,69.94
2023-09-07T07:28:21.958Z,70.88
2023-09-07T07:29:22.025Z,69.10
2023-09-07T07:30:21.934Z,70.76
2023-09-07T07:31:21.963Z,70.12
2023-09-07T07:32:21.924Z,70.21
2023-09-07T07:33:22.036Z,70.93
2023-09-07T07:34:21.863Z,71.72
2023-09-07T07:35:21.848Z,70.88
2023-09-07T07:36:21.858Z,72.27
2023-09-07T07:37:21.846Z,71.86
2023-09-07T07:38:21.791Z,71.72
2023-09-07T07:39:22.783Z,71.71
2023-09-07T07:40:21.777Z,71.63
2023-09-07T07:41:21.780Z,72.93
2023-09-07T07:42:21.743Z,71.83
2023-09-07T07:43:21.795Z,72.28
2023-09-07T07:44:21.702Z,71.73
2023-09-07T07:45:21.685Z,71.74
2023-09-07T07:46:21.784Z,70.96
2023-09-07T07:47:21.658Z,70.55
2023-09-07T07:48:21.659Z,70.95
2023-09-07T07:49:21.640Z,68.95
2023-09-07T07:50:21.653Z,73.21
2023-09-07T07:51:21.623Z,69.69
2023-09-07T07:52:21.567Z,72.47
2023-09-07T07:53:21.683Z,71.15
2023-09-07T07:54:21.550Z,71.30
2023-09-07T07:55:21.550Z,72.92
2023-09-07T07:56:21.570Z,71.46
2023-09-07T07:57:21.505Z,72.86
2023-09-07T07:58:21.495Z,72.30
2023-09-07T07:59:21.458Z,72.18
2023-09-07T08:00:22.480Z,71.14
2023-09-07T08:01:21.743Z,72.89
2023-09-07T08:02:22.420Z,73.36
2023-09-07T08:03:21.438Z,73.11
2023-09-07T08:04:21.494Z,70.30
2023-09-07T08:05:21.457Z,73.89
2023-09-07T08:06:21.366Z,72.90
2023-09-07T08:07:21.376Z,71.41
2023-09-07T08:08:21.333Z,73.21
2023-09-07T08:09:21.336Z,73.24
2023-09-07T08:10:21.318Z,72.61
2023-09-07T08:11:21.277Z,71.82
2023-09-07T08:12:21.263Z,72.92
2023-09-07T08:13:21.253Z,73.13
2023-09-07T08:14:21.297Z,71.98
2023-09-07T08:15:21.210Z,71.79
2023-09-07T08:16:21.288Z,72.03
2023-09-07T08:17:21.360Z,72.60
2023-09-07T08:18:21.300Z,71.74
2023-09-07T08:19:21.241Z,72.17
2023-09-07T08:20:21.154Z,73.18
2023-09-07T08:21:21.115Z,73.17
2023-09-07T08:22:21.139Z,72.30
2023-09-07T08:23:21.124Z,72.39
2023-09-07T08:24:21.074Z,71.69
2023-09-07T08:25:21.111Z,70.88
2023-09-07T08:26:21.049Z,72.65
2023-09-07T08:27:21.044Z,73.08
2023-09-07T08:28:21.039Z,73.60
2023-09-07T08:29:20.996Z,72.57
2023-09-07T08:30:20.979Z,73.04
2023-09-07T08:31:21.008Z,71.68
2023-09-07T08:32:21.039Z,73.00
2023-09-07T08:33:21.065Z,72.80
2023-09-07T08:34:20.913Z,71.27
2023-09-07T08:35:20.954Z,73.46
2023-09-07T08:36:20.877Z,72.01
2023-09-07T08:37:23.750Z,71.72
2023-09-07T08:38:20.850Z,72.95
2023-09-07T08:39:20.848Z,72.91
2023-09-07T08:40:20.829Z,72.54
2023-09-07T08:41:20.801Z,72.47
2023-09-07T08:42:20.824Z,72.66
2023-09-07T08:43:20.774Z,73.43
2023-09-07T08:44:20.759Z,73.19
2023-09-07T08:45:20.802Z,73.76
2023-09-07T08:46:20.784Z,72.67
2023-09-07T08:47:20.730Z,72.82
2023-09-07T08:48:20.777Z,73.59
2023-09-07T08:49:20.672Z,72.30
2023-09-07T08:50:20.679Z,72.27
2023-09-07T08:51:20.811Z,72.64
2023-09-07T08:52:20.688Z,73.68
2023-09-07T08:53:20.610Z,70.65
2023-09-07T08:54:20.618Z,72.87
2023-09-07T08:55:20.577Z,72.95
2023-09-07T08:56:20.642Z,71.81
2023-09-07T08:57:20.544Z,73.05
2023-09-07T08:58:20.513Z,73.12
2023-09-07T08:59:21.510Z,71.58
2023-09-07T09:00:20.512Z,73.23
2023-09-07T09:01:20.582Z,72.59
2023-09-07T09:02:20.528Z,72.27
2023-09-07T09:03:20.516Z,72.20
2023-09-07T09:04:20.537Z,73.17
2023-09-07T09:05:20.438Z,72.58
2023-09-07T09:06:20.395Z,72.84
2023-09-07T09:07:20.473Z,72.00
2023-09-07T09:08:20.490Z,72.64
2023-09-07T09:09:20.478Z,72.64
2023-09-07T09:10:20.346Z,72.09
2023-09-07T09:11:20.296Z,71.24
2023-09-07T09:12:20.280Z,74.02
2023-09-07T09:13:20.270Z,71.39
2023-09-07T09:14:20.283Z,72.32
2023-09-07T09:15:20.259Z,73.04
2023-09-07T09:16:20.269Z,72.93
2023-09-07T09:17:20.205Z,73.69
2023-09-07T09:18:20.295Z,72.67
2023-09-07T09:19:20.183Z,72.25
2023-09-07T09:20:20.152Z,70.73
2023-09-07T09:21:20.120Z,73.08
2023-09-07T09:22:20.106Z,71.28
2023-09-07T09:23:20.134Z,72.88
2023-09-07T09:24:20.103Z,72.96
2023-09-07T09:25:20.057Z,72.22
2023-09-07T09:26:20.035Z,72.27
2023-09-07T09:27:20.024Z,73.88
2023-09-07T09:28:20.136Z,72.03
2023-09-07T09:29:19.981Z,72.52
2023-09-07T09:30:19.962Z,71.26
2023-09-07T09:31:20.016Z,72.07
2023-09-07T09:32:19.928Z,73.27
2023-09-07T09:33:19.969Z,71.67
2023-09-07T09:34:19.913Z,70.81
2023-09-07T09:35:19.882Z,72.31
2023-09-07T09:36:19.889Z,71.24
2023-09-07T09:37:19.866Z,71.69
2023-09-07T09:38:19.859Z,71.69
2023-09-07T09:39:19.806Z,71.90
2023-09-07T09:40:19.927Z,72.27
2023-09-07T09:41:19.769Z,71.75
2023-09-07T09:42:19.782Z,73.13
2023-09-07T09:43:19.733Z,74.13
2023-09-07T09:44:19.716Z,71.68
2023-09-07T09:45:19.698Z,72.06
2023-09-07T09:46:19.708Z,73.03
2023-09-07T09:47:19.835Z,72.14
2023-09-07T09:48:19.736Z,72.19
2023-09-07T09:49:19.636Z,72.37
2023-09-07T09:50:19.688Z,72.58
2023-09-07T09:51:19.617Z,71.50
2023-09-07T09:52:19.612Z,71.59
2023-09-07T09:53:19.671Z,73.13
2023-09-07T09:54:19.576Z,72.83
2023-09-07T09:55:19.529Z,73.85
2023-09-07T09:56:19.557Z,73.36
2023-09-07T09:57:19.523Z,73.51
2023-09-07T09:58:19.478Z,73.72
2023-09-07T09:59:19.517Z,71.13
2023-09-07T10:00:19.458Z,70.84
2023-09-07T10:01:19.503Z,71.29
2023-09-07T10:02:19.478Z,72.46
2023-09-07T10:03:19.439Z,73.46
2023-09-07T10:04:19.378Z,72.63
2023-09-07T10:05:19.376Z,72.02
2023-09-07T10:06:19.367Z,72.02
2023-09-07T10:07:19.389Z,72.11
2023-09-07T10:08:19.367Z,71.18
2023-09-07T10:09:19.305Z,72.01
2023-09-07T10:10:19.294Z,72.61
2023-09-07T10:11:19.278Z,72.12
2023-09-07T10:12:19.243Z,74.80
2023-09-07T10:13:19.208Z,72.83
2023-09-07T10:14:19.245Z,72.84
2023-09-07T10:15:19.263Z,72.74
2023-09-07T10:16:19.216Z,73.63
2023-09-07T10:17:19.165Z,73.76
2023-09-07T10:18:19.159Z,73.53
2023-09-07T10:19:19.096Z,72.81
2023-09-07T10:20:19.222Z,72.42
2023-09-07T10:21:19.069Z,74.27
2023-09-07T10:22:19.054Z,72.06
2023-09-07T10:23:19.047Z,72.16
2023-09-07T10:24:19.041Z,74.35
2023-09-07T10:25:19.032Z,71.70
2023-09-07T10:26:19.008Z,75.20
2023-09-07T10:27:18.956Z,74.30
2023-09-07T10:28:18.934Z,72.93
2023-09-07T10:29:18.957Z,74.33
2023-09-07T10:30:18.929Z,73.56
2023-09-07T10:31:18.936Z,73.88
2023-09-07T10:32:20.652Z,73.48
2023-09-07T10:33:20.886Z,74.57
2023-09-07T10:34:19.848Z,72.60
2023-09-07T10:35:19.824Z,74.13
2023-09-07T10:36:18.796Z,73.11
2023-09-07T10:37:18.790Z,71.87
2023-09-07T10:38:18.792Z,70.70
2023-09-07T10:39:19.805Z,74.38
2023-09-07T10:40:19.861Z,74.59
2023-09-07T10:41:18.781Z,73.85
2023-09-07T10:42:18.680Z,73.93
2023-09-07T10:43:18.704Z,74.36
2023-09-07T10:44:18.647Z,73.03
2023-09-07T10:45:18.746Z,72.91
2023-09-07T10:46:18.632Z,72.48
2023-09-07T10:47:18.652Z,74.29
2023-09-07T10:48:18.710Z,73.73
2023-09-07T10:49:18.559Z,75.28
2023-09-07T10:50:18.542Z,74.38
2023-09-07T10:51:18.531Z,72.89
2023-09-07T10:52:18.673Z,73.84
2023-09-07T10:53:18.488Z,74.20
2023-09-07T10:54:18.488Z,73.35
2023-09-07T10:55:18.514Z,72.79
2023-09-07T10:56:18.522Z,75.22
2023-09-07T10:57:18.496Z,73.54
2023-09-07T10:58:21.598Z,74.02
2023-09-07T10:59:20.421Z,73.85
2023-09-07T11:00:18.365Z,74.42
2023-09-07T11:01:18.429Z,73.36
2023-09-07T11:02:18.424Z,74.41
2023-09-07T11:03:18.414Z,74.03
2023-09-07T11:04:18.607Z,73.98
2023-09-07T11:05:18.274Z,73.00
2023-09-07T11:06:18.293Z,72.70
2023-09-07T11:07:18.259Z,71.80
2023-09-07T11:08:18.233Z,72.68
2023-09-07T11:09:18.249Z,72.75
2023-09-07T11:10:18.197Z,72.38
2023-09-07T11:11:18.201Z,73.35
2023-09-07T11:12:18.158Z,73.49
2023-09-07T11:13:18.130Z,73.29
2023-09-07T11:14:18.159Z,73.59
2023-09-07T11:15:18.221Z,72.47
2023-09-07T11:16:18.165Z,74.74
2023-09-07T11:17:18.064Z,73.75
2023-09-07T11:18:18.061Z,74.03
2023-09-07T11:19:18.080Z,73.85
2023-09-07T11:20:18.049Z,73.69
2023-09-07T11:21:18.023Z,73.70
2023-09-07T11:22:18.017Z,73.32
2023-09-07T11:23:17.960Z,74.24
2023-09-07T11:24:17.939Z,73.99
2023-09-07T11:25:17.952Z,72.33
2023-09-07T11:26:17.903Z,71.91
2023-09-07T11:27:17.893Z,72.93
2023-09-07T11:28:17.873Z,74.06
2023-09-07T11:29:17.855Z,75.12
2023-09-07T11:30:17.867Z,73.94
2023-09-07T11:31:17.918Z,74.58
2023-09-07T11:32:17.856Z,74.18
2023-09-07T11:33:17.895Z,73.25
2023-09-07T11:34:17.791Z,74.73
2023-09-07T11:35:17.878Z,73.51
2023-09-07T11:36:17.751Z,73.83
2023-09-07T11:37:17.723Z,74.10
2023-09-07T11:38:17.701Z,73.16
2023-09-07T11:39:17.698Z,74.57
2023-09-07T11:40:17.698Z,74.37
2023-09-07T11:41:17.640Z,73.04
2023-09-07T11:42:17.650Z,73.52
2023-09-07T11:43:17.605Z,73.20
2023-09-07T11:44:17.610Z,73.51
2023-09-07T11:45:17.596Z,72.20
2023-09-07T11:46:17.627Z,73.56
2023-09-07T11:47:17.539Z,73.77
2023-09-07T11:48:17.550Z,73.08
2023-09-07T11:49:17.575Z,72.43
2023-09-07T11:50:17.482Z,73.17
2023-09-07T11:51:17.488Z,73.86
2023-09-07T11:52:17.454Z,74.29
2023-09-07T11:53:17.459Z,71.99
2023-09-07T11:54:17.411Z,71.95
2023-09-07T11:55:17.444Z,73.62
2023-09-07T11:56:17.487Z,73.85
2023-09-07T11:57:17.430Z,74.67
2023-09-07T11:58:17.375Z,74.01
2023-09-07T11:59:17.374Z,74.96
2023-09-07T12:00:17.302Z,73.05
2023-09-07T12:01:17.330Z,73.02
2023-09-07T12:02:17.412Z,74.48
2023-09-07T12:03:17.307Z,74.68
2023-09-07T12:04:17.290Z,72.58
2023-09-07T12:05:17.231Z,73.88
2023-09-07T12:06:17.191Z,74.36
2023-09-07T12:07:17.244Z,73.13
2023-09-07T12:08:17.154Z,73.50
2023-09-07T12:09:17.133Z,74.89
2023-09-07T12:10:17.156Z,75.74
2023-09-07T12:11:17.098Z,75.13
2023-09-07T12:12:17.111Z,72.61
2023-09-07T12:13:17.071Z,72.69
2023-09-07T12:14:17.075Z,73.51
2023-09-07T12:15:17.048Z,73.97
2023-09-07T12:16:17.150Z,71.93
2023-09-07T12:17:17.156Z,74.24
2023-09-07T12:18:17.228Z,74.33
2023-09-07T12:19:16.957Z,73.60
2023-09-07T12:20:16.960Z,75.19
2023-09-07T12:21:16.946Z,74.89
2023-09-07T12:22:16.901Z,74.49
2023-09-07T12:23:16.897Z,74.08
2023-09-07T12:24:16.889Z,74.06
2023-09-07T12:25:20.031Z,74.80
2023-09-07T12:26:16.909Z,73.02
2023-09-07T12:27:16.818Z,74.28
2023-09-07T12:28:16.794Z,76.12
2023-09-07T12:29:16.823Z,75.37
2023-09-07T12:30:16.789Z,75.55
2023-09-07T12:31:16.919Z,75.01
2023-09-07T12:32:16.768Z,75.51
2023-09-07T12:33:16.709Z,74.41
2023-09-07T12:34:16.709Z,74.74
2023-09-07T12:35:17.246Z,74.54
2023-09-07T12:36:16.653Z,74.92
2023-09-07T12:37:16.637Z,74.33
2023-09-07T12:38:16.621Z,74.43
2023-09-07T12:39:16.612Z,73.67
2023-09-07T12:40:16.610Z,74.47
2023-09-07T12:41:16.575Z,74.37
2023-09-07T12:42:16.545Z,74.27
2023-09-07T12:43:16.527Z,74.38
2023-09-07T12:44:16.597Z,73.98
2023-09-07T12:45:16.656Z,75.57
2023-09-07T12:46:16.480Z,73.92
2023-09-07T12:47:16.480Z,74.35
2023-09-07T12:48:16.445Z,73.08
2023-09-07T12:49:16.458Z,73.80
2023-09-07T12:50:16.420Z,72.90
2023-09-07T12:51:16.396Z,73.30
2023-09-07T12:52:16.384Z,73.28